sensor_id;sensor_type;location;lat;lon;timestamp;temperature;humidity
37642;DHT22;23486;51.956;5.888;2023-07-29T00:01:27;18.50;99.90
37642;DHT22;23486;51.956;5.888;2023-07-29T00:03:52;18.50;99.90
37642;DHT22;23486;51.956;5.888;2023-07-29T00:06:18;18.50;99.90
37642;DHT22;23486;51.956;5.888;2023-07-29T00:08:44;18.50;99.90
37642;DHT22;23486;51.956;5.888;2023-07-29T00:11:09;18.40;99.90
37642;DHT22;23486;51.956;5.888;2023-07-29T00:13:35;18.40;99.90
37642;DHT22;23486;51.956;5.888;2023-07-29T00:16:00;18.40;99.90
37642;DHT22;23486;51.956;5.888;2023-07-29T00:18:26;18.40;99.90
37642;DHT22;23486;51.956;5.888;2023-07-29T00:20:53;18.40;99.90
37642;DHT22;23486;51.956;5.888;2023-07-29T00:23:18;18.40;99.90
37642;DHT22;23486;51.956;5.888;2023-07-29T00:25:44;18.40;99.90
37642;DHT22;23486;51.956;5.888;2023-07-29T00:28:11;18.40;99.90
37642;DHT22;23486;51.956;5.888;2023-07-29T00:30:37;18.30;99.90
37642;DHT22;23486;51.956;5.888;2023-07-29T00:33:03;18.20;99.90
37642;DHT22;23486;51.956;5.888;2023-07-29T00:35:28;18.20;99.90
37642;DHT22;23486;51.956;5.888;2023-07-29T00:37:54;18.20;99.90
37642;DHT22;23486;51.956;5.888;2023-07-29T00:40:22;18.20;99.90
37642;DHT22;23486;51.956;5.888;2023-07-29T00:42:50;18.10;99.90
37642;DHT22;23486;51.956;5.888;2023-07-29T00:45:16;18.10;99.90
37642;DHT22;23486;51.956;5.888;2023-07-29T00:47:42;18.10;99.90
37642;DHT22;23486;51.956;5.888;2023-07-29T00:50:10;18.00;99.90
37642;DHT22;23486;51.956;5.888;2023-07-29T00:52:36;18.00;99.90
37642;DHT22;23486;51.956;5.888;2023-07-29T00:55:03;18.00;99.90
37642;DHT22;23486;51.956;5.888;2023-07-29T00:57:30;18.00;99.90
37642;DHT22;23486;51.956;5.888;2023-07-29T00:59:55;17.90;99.90
37642;DHT22;23486;51.956;5.888;2023-07-29T01:02:21;17.90;99.90
37642;DHT22;23486;51.956;5.888;2023-07-29T01:04:55;17.90;99.90
37642;DHT22;23486;51.956;5.888;2023-07-29T01:07:30;17.90;99.90
37642;DHT22;23486;51.956;5.888;2023-07-29T01:15:46;18.10;99.90
37642;DHT22;23486;51.956;5.888;2023-07-29T01:18:43;18.20;99.90
37642;DHT22;23486;51.956;5.888;2023-07-29T01:21:13;18.30;99.90
37642;DHT22;23486;51.956;5.888;2023-07-29T01:23:39;18.30;99.90
37642;DHT22;23486;51.956;5.888;2023-07-29T01:26:05;18.40;99.90
37642;DHT22;23486;51.956;5.888;2023-07-29T01:28:31;18.30;99.90
37642;DHT22;23486;51.956;5.888;2023-07-29T01:33:42;18.30;99.90
37642;DHT22;23486;51.956;5.888;2023-07-29T01:36:19;18.30;99.90
37642;DHT22;23486;51.956;5.888;2023-07-29T01:38:47;18.30;99.90
37642;DHT22;23486;51.956;5.888;2023-07-29T01:41:13;18.40;99.90
37642;DHT22;23486;51.956;5.888;2023-07-29T01:43:40;18.40;99.90
37642;DHT22;23486;51.956;5.888;2023-07-29T01:46:12;18.40;99.90
37642;DHT22;23486;51.956;5.888;2023-07-29T01:48:38;18.50;99.90
37642;DHT22;23486;51.956;5.888;2023-07-29T01:51:05;18.50;99.90
37642;DHT22;23486;51.956;5.888;2023-07-29T01:53:31;18.50;99.90
37642;DHT22;23486;51.956;5.888;2023-07-29T01:55:57;18.50;99.90
37642;DHT22;23486;51.956;5.888;2023-07-29T01:58:23;18.50;99.90
37642;DHT22;23486;51.956;5.888;2023-07-29T02:00:48;18.50;99.90
37642;DHT22;23486;51.956;5.888;2023-07-29T02:03:14;18.50;99.90
37642;DHT22;23486;51.956;5.888;2023-07-29T02:05:40;18.60;99.90
37642;DHT22;23486;51.956;5.888;2023-07-29T02:08:07;18.60;99.90
37642;DHT22;23486;51.956;5.888;2023-07-29T02:10:32;18.60;99.90
37642;DHT22;23486;51.956;5.888;2023-07-29T02:12:58;18.60;99.90
37642;DHT22;23486;51.956;5.888;2023-07-29T02:15:23;18.60;99.90
37642;DHT22;23486;51.956;5.888;2023-07-29T02:17:50;18.60;99.90
37642;DHT22;23486;51.956;5.888;2023-07-29T02:20:16;18.60;99.90
37642;DHT22;23486;51.956;5.888;2023-07-29T02:22:41;18.60;99.90
37642;DHT22;23486;51.956;5.888;2023-07-29T02:25:07;18.70;99.90
37642;DHT22;23486;51.956;5.888;2023-07-29T02:27:33;18.70;99.90
37642;DHT22;23486;51.956;5.888;2023-07-29T02:29:59;18.70;99.90
37642;DHT22;23486;51.956;5.888;2023-07-29T02:32:24;18.70;99.90
37642;DHT22;23486;51.956;5.888;2023-07-29T02:34:50;18.70;99.90
37642;DHT22;23486;51.956;5.888;2023-07-29T02:37:16;18.70;99.90
37642;DHT22;23486;51.956;5.888;2023-07-29T02:39:42;18.70;99.90
37642;DHT22;23486;51.956;5.888;2023-07-29T02:42:07;18.70;99.90
37642;DHT22;23486;51.956;5.888;2023-07-29T02:44:33;18.70;99.90
37642;DHT22;23486;51.956;5.888;2023-07-29T02:46:58;18.70;99.90
37642;DHT22;23486;51.956;5.888;2023-07-29T02:49:24;18.70;99.90
37642;DHT22;23486;51.956;5.888;2023-07-29T02:51:50;18.70;99.90
37642;DHT22;23486;51.956;5.888;2023-07-29T02:54:15;18.70;99.90
37642;DHT22;23486;51.956;5.888;2023-07-29T02:56:41;18.60;99.90
37642;DHT22;23486;51.956;5.888;2023-07-29T02:59:07;18.70;99.90
37642;DHT22;23486;51.956;5.888;2023-07-29T03:01:32;18.70;99.90
37642;DHT22;23486;51.956;5.888;2023-07-29T03:03:58;18.60;99.90
37642;DHT22;23486;51.956;5.888;2023-07-29T03:06:25;18.60;99.90
37642;DHT22;23486;51.956;5.888;2023-07-29T03:08:50;18.60;99.90
37642;DHT22;23486;51.956;5.888;2023-07-29T03:11:16;18.60;99.90
37642;DHT22;23486;51.956;5.888;2023-07-29T03:13:42;18.50;99.90
37642;DHT22;23486;51.956;5.888;2023-07-29T03:16:16;18.50;99.90
37642;DHT22;23486;51.956;5.888;2023-07-29T03:18:42;18.50;99.90
37642;DHT22;23486;51.956;5.888;2023-07-29T03:21:09;18.50;99.90
37642;DHT22;23486;51.956;5.888;2023-07-29T03:23:36;18.50;99.90
37642;DHT22;23486;51.956;5.888;2023-07-29T03:26:03;18.50;99.90
37642;DHT22;23486;51.956;5.888;2023-07-29T03:28:36;18.50;99.90
37642;DHT22;23486;51.956;5.888;2023-07-29T03:31:02;18.40;99.90
37642;DHT22;23486;51.956;5.888;2023-07-29T03:33:28;18.40;99.90
37642;DHT22;23486;51.956;5.888;2023-07-29T03:35:54;18.40;99.90
37642;DHT22;23486;51.956;5.888;2023-07-29T03:38:20;18.30;99.90
37642;DHT22;23486;51.956;5.888;2023-07-29T03:40:46;18.30;99.90
37642;DHT22;23486;51.956;5.888;2023-07-29T03:43:12;18.20;99.90
37642;DHT22;23486;51.956;5.888;2023-07-29T03:45:38;18.20;99.90
37642;DHT22;23486;51.956;5.888;2023-07-29T03:48:04;18.20;99.90
37642;DHT22;23486;51.956;5.888;2023-07-29T03:50:30;18.10;99.90
37642;DHT22;23486;51.956;5.888;2023-07-29T03:52:56;18.10;99.90
37642;DHT22;23486;51.956;5.888;2023-07-29T03:55:22;18.10;99.90
37642;DHT22;23486;51.956;5.888;2023-07-29T03:57:48;18.00;99.90
37642;DHT22;23486;51.956;5.888;2023-07-29T04:00:13;18.00;99.90
37642;DHT22;23486;51.956;5.888;2023-07-29T04:02:39;18.00;99.90
37642;DHT22;23486;51.956;5.888;2023-07-29T04:05:06;17.90;99.90
37642;DHT22;23486;51.956;5.888;2023-07-29T04:07:36;17.90;99.90
37642;DHT22;23486;51.956;5.888;2023-07-29T04:10:03;17.90;99.90
37642;DHT22;23486;51.956;5.888;2023-07-29T04:12:30;17.90;99.90
37642;DHT22;23486;51.956;5.888;2023-07-29T04:14:56;17.90;99.90
37642;DHT22;23486;51.956;5.888;2023-07-29T04:17:21;17.90;99.90
37642;DHT22;23486;51.956;5.888;2023-07-29T04:19:47;17.80;99.90
37642;DHT22;23486;51.956;5.888;2023-07-29T04:22:13;17.80;99.90
37642;DHT22;23486;51.956;5.888;2023-07-29T04:24:40;17.80;99.90
37642;DHT22;23486;51.956;5.888;2023-07-29T04:27:06;17.80;99.90
37642;DHT22;23486;51.956;5.888;2023-07-29T04:29:32;17.70;99.90
37642;DHT22;23486;51.956;5.888;2023-07-29T04:31:58;17.70;99.90
37642;DHT22;23486;51.956;5.888;2023-07-29T04:34:24;17.70;99.90
37642;DHT22;23486;51.956;5.888;2023-07-29T04:36:49;17.70;99.90
37642;DHT22;23486;51.956;5.888;2023-07-29T04:39:15;17.70;99.90
37642;DHT22;23486;51.956;5.888;2023-07-29T04:41:40;17.70;99.90
37642;DHT22;23486;51.956;5.888;2023-07-29T04:44:06;17.70;99.90
37642;DHT22;23486;51.956;5.888;2023-07-29T04:46:32;17.70;99.90
37642;DHT22;23486;51.956;5.888;2023-07-29T04:48:58;17.70;99.90
37642;DHT22;23486;51.956;5.888;2023-07-29T04:51:24;17.70;99.90
37642;DHT22;23486;51.956;5.888;2023-07-29T04:53:50;17.70;99.90
37642;DHT22;23486;51.956;5.888;2023-07-29T04:56:15;17.70;99.90
37642;DHT22;23486;51.956;5.888;2023-07-29T04:58:41;17.70;99.90
37642;DHT22;23486;51.956;5.888;2023-07-29T05:01:07;17.70;99.90
37642;DHT22;23486;51.956;5.888;2023-07-29T05:03:32;17.70;99.90
37642;DHT22;23486;51.956;5.888;2023-07-29T05:05:59;17.80;99.90
37642;DHT22;23486;51.956;5.888;2023-07-29T05:08:28;17.80;99.90
37642;DHT22;23486;51.956;5.888;2023-07-29T05:10:54;17.80;99.90
37642;DHT22;23486;51.956;5.888;2023-07-29T05:13:20;17.80;99.90
37642;DHT22;23486;51.956;5.888;2023-07-29T05:15:47;17.80;99.90
37642;DHT22;23486;51.956;5.888;2023-07-29T05:18:13;17.90;99.90
37642;DHT22;23486;51.956;5.888;2023-07-29T05:20:39;17.90;99.90
37642;DHT22;23486;51.956;5.888;2023-07-29T05:23:04;18.00;99.90
37642;DHT22;23486;51.956;5.888;2023-07-29T05:25:30;18.00;99.90
37642;DHT22;23486;51.956;5.888;2023-07-29T05:27:56;18.00;99.90
37642;DHT22;23486;51.956;5.888;2023-07-29T05:30:22;18.00;99.90
37642;DHT22;23486;51.956;5.888;2023-07-29T05:32:48;18.00;99.90
37642;DHT22;23486;51.956;5.888;2023-07-29T05:35:14;18.10;99.90
37642;DHT22;23486;51.956;5.888;2023-07-29T05:37:40;18.10;99.90
37642;DHT22;23486;51.956;5.888;2023-07-29T05:40:07;18.00;99.90
37642;DHT22;23486;51.956;5.888;2023-07-29T05:42:34;18.10;99.90
37642;DHT22;23486;51.956;5.888;2023-07-29T05:44:59;18.10;99.90
37642;DHT22;23486;51.956;5.888;2023-07-29T05:47:25;18.10;99.90
37642;DHT22;23486;51.956;5.888;2023-07-29T05:49:52;18.10;99.90
37642;DHT22;23486;51.956;5.888;2023-07-29T05:52:18;18.10;99.90
37642;DHT22;23486;51.956;5.888;2023-07-29T05:54:43;18.10;99.90
37642;DHT22;23486;51.956;5.888;2023-07-29T05:57:10;18.10;99.90
37642;DHT22;23486;51.956;5.888;2023-07-29T05:59:36;18.20;99.90
37642;DHT22;23486;51.956;5.888;2023-07-29T06:02:02;18.20;99.90
37642;DHT22;23486;51.956;5.888;2023-07-29T06:04:27;18.30;99.90
37642;DHT22;23486;51.956;5.888;2023-07-29T06:06:53;18.30;99.90
37642;DHT22;23486;51.956;5.888;2023-07-29T06:09:21;18.40;99.90
37642;DHT22;23486;51.956;5.888;2023-07-29T06:11:47;18.40;99.90
37642;DHT22;23486;51.956;5.888;2023-07-29T06:14:12;18.40;99.90
37642;DHT22;23486;51.956;5.888;2023-07-29T06:16:38;18.40;99.90
37642;DHT22;23486;51.956;5.888;2023-07-29T06:19:04;18.50;99.90
37642;DHT22;23486;51.956;5.888;2023-07-29T06:21:30;18.50;99.90
37642;DHT22;23486;51.956;5.888;2023-07-29T06:23:55;18.60;99.90
37642;DHT22;23486;51.956;5.888;2023-07-29T06:26:21;18.70;99.90
37642;DHT22;23486;51.956;5.888;2023-07-29T06:28:46;18.90;99.90
37642;DHT22;23486;51.956;5.888;2023-07-29T06:31:12;19.00;99.90
37642;DHT22;23486;51.956;5.888;2023-07-29T06:33:38;19.10;99.90
37642;DHT22;23486;51.956;5.888;2023-07-29T06:36:03;19.10;99.90
37642;DHT22;23486;51.956;5.888;2023-07-29T06:38:29;19.20;99.90
37642;DHT22;23486;51.956;5.888;2023-07-29T06:40:55;19.20;99.90
37642;DHT22;23486;51.956;5.888;2023-07-29T06:43:20;19.30;99.90
37642;DHT22;23486;51.956;5.888;2023-07-29T06:45:46;19.20;99.90
37642;DHT22;23486;51.956;5.888;2023-07-29T06:48:12;19.20;99.90
37642;DHT22;23486;51.956;5.888;2023-07-29T06:50:38;19.10;99.90
37642;DHT22;23486;51.956;5.888;2023-07-29T06:53:03;19.10;99.90
37642;DHT22;23486;51.956;5.888;2023-07-29T06:55:29;19.10;99.90
37642;DHT22;23486;51.956;5.888;2023-07-29T06:57:55;19.20;99.90
37642;DHT22;23486;51.956;5.888;2023-07-29T07:00:20;19.30;99.90
37642;DHT22;23486;51.956;5.888;2023-07-29T07:02:46;19.30;99.90
37642;DHT22;23486;51.956;5.888;2023-07-29T07:05:12;19.30;99.90
37642;DHT22;23486;51.956;5.888;2023-07-29T07:07:37;19.30;99.90
37642;DHT22;23486;51.956;5.888;2023-07-29T07:10:04;19.30;99.90
37642;DHT22;23486;51.956;5.888;2023-07-29T07:12:29;19.30;99.90
37642;DHT22;23486;51.956;5.888;2023-07-29T07:14:55;19.40;99.90
37642;DHT22;23486;51.956;5.888;2023-07-29T07:17:20;19.40;99.90
37642;DHT22;23486;51.956;5.888;2023-07-29T07:19:47;19.40;99.90
37642;DHT22;23486;51.956;5.888;2023-07-29T07:22:12;19.50;99.90
37642;DHT22;23486;51.956;5.888;2023-07-29T07:24:38;19.60;99.90
37642;DHT22;23486;51.956;5.888;2023-07-29T07:27:04;19.70;99.90
37642;DHT22;23486;51.956;5.888;2023-07-29T07:29:29;19.80;99.90
37642;DHT22;23486;51.956;5.888;2023-07-29T07:31:56;19.90;99.90
37642;DHT22;23486;51.956;5.888;2023-07-29T07:34:22;20.00;99.90
37642;DHT22;23486;51.956;5.888;2023-07-29T07:36:48;20.20;99.90
37642;DHT22;23486;51.956;5.888;2023-07-29T07:39:14;20.30;99.90
37642;DHT22;23486;51.956;5.888;2023-07-29T07:41:41;20.40;99.90
37642;DHT22;23486;51.956;5.888;2023-07-29T07:44:06;20.40;99.90
37642;DHT22;23486;51.956;5.888;2023-07-29T07:46:32;20.50;99.90
37642;DHT22;23486;51.956;5.888;2023-07-29T07:48:57;20.50;99.90
37642;DHT22;23486;51.956;5.888;2023-07-29T07:51:23;20.60;99.90
37642;DHT22;23486;51.956;5.888;2023-07-29T07:53:49;20.70;99.90
37642;DHT22;23486;51.956;5.888;2023-07-29T07:56:14;20.70;99.90
37642;DHT22;23486;51.956;5.888;2023-07-29T07:58:40;20.80;99.90
37642;DHT22;23486;51.956;5.888;2023-07-29T08:01:07;20.90;99.90
37642;DHT22;23486;51.956;5.888;2023-07-29T08:03:33;21.00;99.90
37642;DHT22;23486;51.956;5.888;2023-07-29T08:05:59;21.10;99.90
37642;DHT22;23486;51.956;5.888;2023-07-29T08:08:26;21.00;99.90
37642;DHT22;23486;51.956;5.888;2023-07-29T08:10:56;20.80;99.90
37642;DHT22;23486;51.956;5.888;2023-07-29T08:13:23;20.70;99.90
37642;DHT22;23486;51.956;5.888;2023-07-29T08:15:50;20.60;99.90
37642;DHT22;23486;51.956;5.888;2023-07-29T08:18:16;20.50;99.90
37642;DHT22;23486;51.956;5.888;2023-07-29T08:21:00;20.60;99.90
37642;DHT22;23486;51.956;5.888;2023-07-29T08:23:31;20.60;99.90
37642;DHT22;23486;51.956;5.888;2023-07-29T08:25:58;20.70;99.90
37642;DHT22;23486;51.956;5.888;2023-07-29T08:28:37;20.70;99.90
37642;DHT22;23486;51.956;5.888;2023-07-29T08:31:03;20.80;99.90
37642;DHT22;23486;51.956;5.888;2023-07-29T08:33:30;20.80;99.90
37642;DHT22;23486;51.956;5.888;2023-07-29T08:35:55;20.80;99.90
37642;DHT22;23486;51.956;5.888;2023-07-29T08:38:21;20.80;99.90
37642;DHT22;23486;51.956;5.888;2023-07-29T08:46:33;20.70;99.90
37642;DHT22;23486;51.956;5.888;2023-07-29T08:48:59;20.80;99.90
37642;DHT22;23486;51.956;5.888;2023-07-29T08:51:27;20.80;99.90
37642;DHT22;23486;51.956;5.888;2023-07-29T08:53:53;21.00;99.90
37642;DHT22;23486;51.956;5.888;2023-07-29T08:56:19;21.20;99.90
37642;DHT22;23486;51.956;5.888;2023-07-29T08:58:46;21.40;99.90
37642;DHT22;23486;51.956;5.888;2023-07-29T09:01:12;21.70;99.90
37642;DHT22;23486;51.956;5.888;2023-07-29T09:03:37;21.80;99.90
37642;DHT22;23486;51.956;5.888;2023-07-29T09:06:03;21.70;99.90
37642;DHT22;23486;51.956;5.888;2023-07-29T09:08:29;21.60;99.90
37642;DHT22;23486;51.956;5.888;2023-07-29T09:10:55;21.60;99.90
37642;DHT22;23486;51.956;5.888;2023-07-29T09:13:22;21.60;99.90
37642;DHT22;23486;51.956;5.888;2023-07-29T09:15:48;21.60;99.90
37642;DHT22;23486;51.956;5.888;2023-07-29T09:18:19;21.60;99.90
37642;DHT22;23486;51.956;5.888;2023-07-29T09:20:49;21.60;99.90
37642;DHT22;23486;51.956;5.888;2023-07-29T09:23:15;21.50;99.90
37642;DHT22;23486;51.956;5.888;2023-07-29T09:25:41;21.50;99.90
37642;DHT22;23486;51.956;5.888;2023-07-29T09:28:12;21.60;99.90
37642;DHT22;23486;51.956;5.888;2023-07-29T09:30:39;21.60;99.90
37642;DHT22;23486;51.956;5.888;2023-07-29T09:33:05;21.70;99.90
37642;DHT22;23486;51.956;5.888;2023-07-29T09:35:33;21.90;99.90
37642;DHT22;23486;51.956;5.888;2023-07-29T09:37:59;22.10;99.90
37642;DHT22;23486;51.956;5.888;2023-07-29T09:40:25;22.20;99.90
37642;DHT22;23486;51.956;5.888;2023-07-29T09:42:55;22.20;99.90
37642;DHT22;23486;51.956;5.888;2023-07-29T09:45:25;22.20;99.90
37642;DHT22;23486;51.956;5.888;2023-07-29T09:47:52;22.20;99.90
37642;DHT22;23486;51.956;5.888;2023-07-29T09:50:18;22.10;99.90
37642;DHT22;23486;51.956;5.888;2023-07-29T09:52:44;22.10;99.90
37642;DHT22;23486;51.956;5.888;2023-07-29T09:55:17;22.00;99.90
37642;DHT22;23486;51.956;5.888;2023-07-29T09:57:43;22.00;99.90
37642;DHT22;23486;51.956;5.888;2023-07-29T10:00:11;22.10;99.90
37642;DHT22;23486;51.956;5.888;2023-07-29T10:02:42;22.10;99.90
37642;DHT22;23486;51.956;5.888;2023-07-29T10:05:09;22.20;99.90
37642;DHT22;23486;51.956;5.888;2023-07-29T10:07:38;22.40;99.90
37642;DHT22;23486;51.956;5.888;2023-07-29T10:10:05;22.70;99.90
37642;DHT22;23486;51.956;5.888;2023-07-29T10:12:32;22.90;99.90
37642;DHT22;23486;51.956;5.888;2023-07-29T10:15:07;22.90;99.90
37642;DHT22;23486;51.956;5.888;2023-07-29T10:17:38;23.00;99.90
37642;DHT22;23486;51.956;5.888;2023-07-29T10:20:06;23.20;99.90
37642;DHT22;23486;51.956;5.888;2023-07-29T10:22:51;23.50;99.90
37642;DHT22;23486;51.956;5.888;2023-07-29T10:25:24;23.70;99.90
37642;DHT22;23486;51.956;5.888;2023-07-29T10:28:07;23.70;99.90
37642;DHT22;23486;51.956;5.888;2023-07-29T10:30:33;23.80;99.90
37642;DHT22;23486;51.956;5.888;2023-07-29T10:33:02;23.70;99.90
37642;DHT22;23486;51.956;5.888;2023-07-29T10:35:29;23.60;99.90
37642;DHT22;23486;51.956;5.888;2023-07-29T10:37:55;23.70;99.90
37642;DHT22;23486;51.956;5.888;2023-07-29T10:40:21;23.60;99.90
37642;DHT22;23486;51.956;5.888;2023-07-29T10:43:11;23.60;99.90
37642;DHT22;23486;51.956;5.888;2023-07-29T10:45:41;23.60;99.90
37642;DHT22;23486;51.956;5.888;2023-07-29T10:51:27;23.90;99.90
37642;DHT22;23486;51.956;5.888;2023-07-29T10:54:01;24.00;99.90
37642;DHT22;23486;51.956;5.888;2023-07-29T10:56:30;24.00;99.90
37642;DHT22;23486;51.956;5.888;2023-07-29T10:58:58;23.90;99.90
37642;DHT22;23486;51.956;5.888;2023-07-29T11:01:31;23.90;99.90
37642;DHT22;23486;51.956;5.888;2023-07-29T11:17:33;24.10;99.90
37642;DHT22;23486;51.956;5.888;2023-07-29T11:20:03;24.10;99.90
37642;DHT22;23486;51.956;5.888;2023-07-29T11:22:29;23.90;99.90
37642;DHT22;23486;51.956;5.888;2023-07-29T11:24:55;23.90;99.90
37642;DHT22;23486;51.956;5.888;2023-07-29T11:27:21;23.80;99.90
37642;DHT22;23486;51.956;5.888;2023-07-29T11:29:47;23.60;99.90
37642;DHT22;23486;51.956;5.888;2023-07-29T11:32:13;23.50;99.90
37642;DHT22;23486;51.956;5.888;2023-07-29T11:34:39;23.40;99.90
37642;DHT22;23486;51.956;5.888;2023-07-29T11:37:10;23.30;99.90
37642;DHT22;23486;51.956;5.888;2023-07-29T11:39:41;23.20;99.90
37642;DHT22;23486;51.956;5.888;2023-07-29T11:42:16;23.20;99.90
37642;DHT22;23486;51.956;5.888;2023-07-29T11:44:42;23.00;99.90
37642;DHT22;23486;51.956;5.888;2023-07-29T11:47:09;22.90;99.90
37642;DHT22;23486;51.956;5.888;2023-07-29T11:49:35;22.80;99.90
37642;DHT22;23486;51.956;5.888;2023-07-29T11:52:02;22.70;99.90
37642;DHT22;23486;51.956;5.888;2023-07-29T11:54:28;22.50;99.90
37642;DHT22;23486;51.956;5.888;2023-07-29T11:56:55;22.30;99.90
37642;DHT22;23486;51.956;5.888;2023-07-29T11:59:21;21.80;99.90
37642;DHT22;23486;51.956;5.888;2023-07-29T12:01:46;21.30;99.90
37642;DHT22;23486;51.956;5.888;2023-07-29T12:04:12;21.00;99.90
37642;DHT22;23486;51.956;5.888;2023-07-29T12:06:39;20.70;99.90
37642;DHT22;23486;51.956;5.888;2023-07-29T12:09:04;20.60;99.90
37642;DHT22;23486;51.956;5.888;2023-07-29T12:11:31;20.40;99.90
37642;DHT22;23486;51.956;5.888;2023-07-29T12:13:57;20.40;99.90
37642;DHT22;23486;51.956;5.888;2023-07-29T12:16:24;20.30;99.90
37642;DHT22;23486;51.956;5.888;2023-07-29T12:18:50;20.20;99.90
37642;DHT22;23486;51.956;5.888;2023-07-29T12:21:18;20.10;99.90
37642;DHT22;23486;51.956;5.888;2023-07-29T12:23:44;20.00;99.90
37642;DHT22;23486;51.956;5.888;2023-07-29T12:26:09;20.10;99.90
37642;DHT22;23486;51.956;5.888;2023-07-29T12:28:35;20.30;99.90
37642;DHT22;23486;51.956;5.888;2023-07-29T12:31:01;20.40;99.90
37642;DHT22;23486;51.956;5.888;2023-07-29T12:33:35;20.50;99.90
37642;DHT22;23486;51.956;5.888;2023-07-29T12:36:01;20.60;99.90
37642;DHT22;23486;51.956;5.888;2023-07-29T12:38:27;20.70;99.90
37642;DHT22;23486;51.956;5.888;2023-07-29T12:40:52;20.70;99.90
37642;DHT22;23486;51.956;5.888;2023-07-29T12:43:18;20.70;99.90
37642;DHT22;23486;51.956;5.888;2023-07-29T12:45:44;20.70;99.90
37642;DHT22;23486;51.956;5.888;2023-07-29T12:48:10;20.80;99.90
37642;DHT22;23486;51.956;5.888;2023-07-29T12:50:37;21.10;99.90
37642;DHT22;23486;51.956;5.888;2023-07-29T12:53:05;21.30;99.90
37642;DHT22;23486;51.956;5.888;2023-07-29T12:55:30;21.50;99.90
37642;DHT22;23486;51.956;5.888;2023-07-29T12:57:56;21.70;99.90
37642;DHT22;23486;51.956;5.888;2023-07-29T13:00:23;21.80;99.90
37642;DHT22;23486;51.956;5.888;2023-07-29T13:02:49;21.90;99.90
37642;DHT22;23486;51.956;5.888;2023-07-29T13:05:14;22.10;99.90
37642;DHT22;23486;51.956;5.888;2023-07-29T13:07:42;22.20;99.90
37642;DHT22;23486;51.956;5.888;2023-07-29T13:10:09;22.30;99.90
37642;DHT22;23486;51.956;5.888;2023-07-29T13:12:35;22.40;99.90
37642;DHT22;23486;51.956;5.888;2023-07-29T13:15:00;22.60;99.90
37642;DHT22;23486;51.956;5.888;2023-07-29T13:17:26;22.90;99.90
37642;DHT22;23486;51.956;5.888;2023-07-29T13:19:52;22.90;99.90
37642;DHT22;23486;51.956;5.888;2023-07-29T13:22:17;22.90;99.90
37642;DHT22;23486;51.956;5.888;2023-07-29T13:24:45;22.90;99.90
37642;DHT22;23486;51.956;5.888;2023-07-29T13:27:11;23.00;99.90
37642;DHT22;23486;51.956;5.888;2023-07-29T13:29:36;23.00;99.90
37642;DHT22;23486;51.956;5.888;2023-07-29T13:32:02;23.00;99.90
37642;DHT22;23486;51.956;5.888;2023-07-29T13:34:28;23.00;99.90
37642;DHT22;23486;51.956;5.888;2023-07-29T13:36:53;23.10;99.90
37642;DHT22;23486;51.956;5.888;2023-07-29T13:39:19;23.30;99.90
37642;DHT22;23486;51.956;5.888;2023-07-29T13:41:45;23.40;99.90
37642;DHT22;23486;51.956;5.888;2023-07-29T13:44:10;23.70;99.90
37642;DHT22;23486;51.956;5.888;2023-07-29T13:46:36;23.90;99.90
37642;DHT22;23486;51.956;5.888;2023-07-29T13:49:01;23.90;99.90
37642;DHT22;23486;51.956;5.888;2023-07-29T13:51:28;24.10;99.90
37642;DHT22;23486;51.956;5.888;2023-07-29T13:53:54;24.30;99.90
37642;DHT22;23486;51.956;5.888;2023-07-29T13:56:21;24.30;99.90
37642;DHT22;23486;51.956;5.888;2023-07-29T13:58:47;24.30;99.90
37642;DHT22;23486;51.956;5.888;2023-07-29T14:01:12;24.50;99.90
37642;DHT22;23486;51.956;5.888;2023-07-29T14:03:38;24.60;99.90
37642;DHT22;23486;51.956;5.888;2023-07-29T14:06:04;24.80;99.90
37642;DHT22;23486;51.956;5.888;2023-07-29T14:08:29;24.90;99.90
37642;DHT22;23486;51.956;5.888;2023-07-29T14:10:55;25.00;99.90
37642;DHT22;23486;51.956;5.888;2023-07-29T14:13:21;25.20;99.90
37642;DHT22;23486;51.956;5.888;2023-07-29T14:15:46;25.40;99.90
37642;DHT22;23486;51.956;5.888;2023-07-29T14:18:12;25.40;99.90
37642;DHT22;23486;51.956;5.888;2023-07-29T14:20:38;25.40;99.90
37642;DHT22;23486;51.956;5.888;2023-07-29T14:23:04;25.40;99.90
37642;DHT22;23486;51.956;5.888;2023-07-29T14:25:29;25.50;99.90
37642;DHT22;23486;51.956;5.888;2023-07-29T14:27:55;25.40;99.90
37642;DHT22;23486;51.956;5.888;2023-07-29T14:30:20;25.40;99.90
37642;DHT22;23486;51.956;5.888;2023-07-29T14:32:46;25.30;99.90
37642;DHT22;23486;51.956;5.888;2023-07-29T14:35:12;25.40;99.90
37642;DHT22;23486;51.956;5.888;2023-07-29T14:37:38;25.60;99.90
37642;DHT22;23486;51.956;5.888;2023-07-29T14:40:04;25.70;99.90
37642;DHT22;23486;51.956;5.888;2023-07-29T14:42:30;25.70;99.90
37642;DHT22;23486;51.956;5.888;2023-07-29T14:44:56;26.00;99.90
37642;DHT22;23486;51.956;5.888;2023-07-29T14:47:22;26.10;99.90
37642;DHT22;23486;51.956;5.888;2023-07-29T14:49:47;26.00;99.90
37642;DHT22;23486;51.956;5.888;2023-07-29T14:52:13;25.80;99.90
37642;DHT22;23486;51.956;5.888;2023-07-29T14:54:38;25.90;99.90
37642;DHT22;23486;51.956;5.888;2023-07-29T14:57:06;26.00;99.90
37642;DHT22;23486;51.956;5.888;2023-07-29T14:59:32;26.20;99.90
37642;DHT22;23486;51.956;5.888;2023-07-29T15:01:58;26.30;99.90
37642;DHT22;23486;51.956;5.888;2023-07-29T15:04:23;26.40;99.90
37642;DHT22;23486;51.956;5.888;2023-07-29T15:06:49;26.50;99.90
37642;DHT22;23486;51.956;5.888;2023-07-29T15:09:15;26.80;99.90
37642;DHT22;23486;51.956;5.888;2023-07-29T15:11:40;26.80;99.90
37642;DHT22;23486;51.956;5.888;2023-07-29T15:14:06;26.70;99.90
37642;DHT22;23486;51.956;5.888;2023-07-29T15:16:32;26.70;99.90
37642;DHT22;23486;51.956;5.888;2023-07-29T15:18:59;26.80;99.90
37642;DHT22;23486;51.956;5.888;2023-07-29T15:21:25;26.60;99.90
37642;DHT22;23486;51.956;5.888;2023-07-29T15:23:51;26.50;99.90
37642;DHT22;23486;51.956;5.888;2023-07-29T15:26:16;26.30;99.90
37642;DHT22;23486;51.956;5.888;2023-07-29T15:28:43;26.40;99.90
37642;DHT22;23486;51.956;5.888;2023-07-29T15:31:09;26.80;99.90
37642;DHT22;23486;51.956;5.888;2023-07-29T15:33:36;26.90;99.90
37642;DHT22;23486;51.956;5.888;2023-07-29T15:36:01;26.90;99.90
37642;DHT22;23486;51.956;5.888;2023-07-29T15:38:27;27.00;99.90
37642;DHT22;23486;51.956;5.888;2023-07-29T15:40:53;26.80;99.90
37642;DHT22;23486;51.956;5.888;2023-07-29T15:43:19;26.50;99.90
37642;DHT22;23486;51.956;5.888;2023-07-29T15:45:44;26.30;99.90
37642;DHT22;23486;51.956;5.888;2023-07-29T15:48:10;26.10;99.90
37642;DHT22;23486;51.956;5.888;2023-07-29T15:50:36;26.00;99.90
37642;DHT22;23486;51.956;5.888;2023-07-29T15:53:02;25.80;99.90
37642;DHT22;23486;51.956;5.888;2023-07-29T15:55:29;25.70;99.90
37642;DHT22;23486;51.956;5.888;2023-07-29T15:57:54;25.60;99.90